sensor_id;sensor_type;location;lat;lon;timestamp;pressure;altitude;pressure_sealevel;temperature;humidity
58843;BME280;44614;54.356;10.100;2023-03-14T00:01:37;98363.41;;;9.23;81.88
58843;BME280;44614;54.356;10.100;2023-03-14T00:04:06;98348.91;;;9.18;82.06
58843;BME280;44614;54.356;10.100;2023-03-14T00:06:31;98358.22;;;9.17;82.62
58843;BME280;44614;54.356;10.100;2023-03-14T00:08:57;98340.16;;;9.16;82.57
58843;BME280;44614;54.356;10.100;2023-03-14T00:11:22;98338.78;;;9.13;82.84
58843;BME280;44614;54.356;10.100;2023-03-14T00:13:48;98333.84;;;9.10;83.27
58843;BME280;44614;54.356;10.100;2023-03-14T00:16:14;98318.22;;;8.95;83.23
58843;BME280;44614;54.356;10.100;2023-03-14T00:18:39;98307.28;;;8.90;83.89
58843;BME280;44614;54.356;10.100;2023-03-14T00:21:06;98340.13;;;9.06;84.31
58843;BME280;44614;54.356;10.100;2023-03-14T00:23:34;98337.66;;;9.04;84.05
58843;BME280;44614;54.356;10.100;2023-03-14T00:26:00;98348.63;;;9.04;84.07
58843;BME280;44614;54.356;10.100;2023-03-14T00:28:26;98337.94;;;9.02;84.65
58843;BME280;44614;54.356;10.100;2023-03-14T00:30:52;98335.50;;;9.01;85.47
58843;BME280;44614;54.356;10.100;2023-03-14T00:33:17;98334.41;;;9.02;85.06
58843;BME280;44614;54.356;10.100;2023-03-14T00:35:42;98329.72;;;9.02;85.13
58843;BME280;44614;54.356;10.100;2023-03-14T00:38:08;98325.91;;;9.03;85.01
58843;BME280;44614;54.356;10.100;2023-03-14T00:40:33;98329.19;;;9.06;85.30
58843;BME280;44614;54.356;10.100;2023-03-14T00:42:58;98328.38;;;9.05;86.18
58843;BME280;44614;54.356;10.100;2023-03-14T00:45:23;98322.63;;;9.07;85.60
58843;BME280;44614;54.356;10.100;2023-03-14T00:47:49;98314.41;;;9.07;85.94
58843;BME280;44614;54.356;10.100;2023-03-14T00:50:14;98307.81;;;9.08;85.54
58843;BME280;44614;54.356;10.100;2023-03-14T00:52:39;98306.19;;;9.07;85.03
58843;BME280;44614;54.356;10.100;2023-03-14T00:55:05;98307.84;;;9.02;85.62
58843;BME280;44614;54.356;10.100;2023-03-14T00:57:30;98289.25;;;8.89;85.78
58843;BME280;44614;54.356;10.100;2023-03-14T00:59:56;98297.72;;;8.98;85.94
58843;BME280;44614;54.356;10.100;2023-03-14T01:02:21;98297.97;;;8.96;86.25
58843;BME280;44614;54.356;10.100;2023-03-14T01:04:50;98290.59;;;8.97;85.82
58843;BME280;44614;54.356;10.100;2023-03-14T01:07:15;98279.91;;;8.95;85.95
58843;BME280;44614;54.356;10.100;2023-03-14T01:09:41;98284.56;;;8.95;86.36
58843;BME280;44614;54.356;10.100;2023-03-14T01:12:06;98286.75;;;8.93;86.31
58843;BME280;44614;54.356;10.100;2023-03-14T01:14:31;98294.13;;;8.92;86.17
58843;BME280;44614;54.356;10.100;2023-03-14T01:16:57;98282.09;;;8.88;86.37
58843;BME280;44614;54.356;10.100;2023-03-14T01:19:29;98268.97;;;8.90;86.30
58843;BME280;44614;54.356;10.100;2023-03-14T01:21:54;98274.72;;;8.89;86.15
58843;BME280;44614;54.356;10.100;2023-03-14T01:24:20;98275.00;;;8.87;86.74
58843;BME280;44614;54.356;10.100;2023-03-14T01:26:46;98273.38;;;8.86;86.58
58843;BME280;44614;54.356;10.100;2023-03-14T01:29:11;98279.91;;;8.85;86.48
58843;BME280;44614;54.356;10.100;2023-03-14T01:31:37;98283.22;;;8.82;87.09
58843;BME280;44614;54.356;10.100;2023-03-14T01:34:02;98281.28;;;8.83;86.75
58843;BME280;44614;54.356;10.100;2023-03-14T01:36:27;98278.81;;;8.81;86.56
58843;BME280;44614;54.356;10.100;2023-03-14T01:38:53;98280.47;;;8.77;86.73
58843;BME280;44614;54.356;10.100;2023-03-14T01:41:21;98290.34;;;8.78;86.93
58843;BME280;44614;54.356;10.100;2023-03-14T01:43:48;98287.84;;;8.76;86.79
58843;BME280;44614;54.356;10.100;2023-03-14T01:46:32;98291.41;;;8.72;87.70
58843;BME280;44614;54.356;10.100;2023-03-14T01:49:03;98294.16;;;8.77;87.26
58843;BME280;44614;54.356;10.100;2023-03-14T01:54:13;98306.75;;;8.78;86.98
58843;BME280;44614;54.356;10.100;2023-03-14T01:56:41;98298.53;;;8.78;87.27
58843;BME280;44614;54.356;10.100;2023-03-14T01:59:09;98255.31;;;8.60;86.85
58843;BME280;44614;54.356;10.100;2023-03-14T02:01:36;98281.56;;;8.81;87.28
58843;BME280;44614;54.356;10.100;2023-03-14T02:04:04;98275.00;;;8.87;87.00
58843;BME280;44614;54.356;10.100;2023-03-14T02:07:00;98271.72;;;8.90;86.41
58843;BME280;44614;54.356;10.100;2023-03-14T02:09:28;98270.34;;;8.88;86.62
58843;BME280;44614;54.356;10.100;2023-03-14T02:11:55;98256.13;;;8.86;86.91
58843;BME280;44614;54.356;10.100;2023-03-14T02:14:33;98255.28;;;8.85;86.68
58843;BME280;44614;54.356;10.100;2023-03-14T02:16:58;98260.22;;;8.88;87.61
58843;BME280;44614;54.356;10.100;2023-03-14T02:19:55;98263.50;;;8.90;87.02
58843;BME280;44614;54.356;10.100;2023-03-14T02:22:25;98268.41;;;8.88;86.64
58843;BME280;44614;54.356;10.100;2023-03-14T02:24:57;98254.72;;;8.88;87.51
58843;BME280;44614;54.356;10.100;2023-03-14T02:27:25;98250.63;;;8.91;87.29
58843;BME280;44614;54.356;10.100;2023-03-14T02:29:57;98256.94;;;8.91;87.21
58843;BME280;44614;54.356;10.100;2023-03-14T02:32:25;98248.19;;;8.89;86.89
58843;BME280;44614;54.356;10.100;2023-03-14T02:34:55;98241.31;;;8.92;87.45
58843;BME280;44614;54.356;10.100;2023-03-14T02:37:24;98212.06;;;8.77;86.98
58843;BME280;44614;54.356;10.100;2023-03-14T02:39:52;98225.72;;;8.87;87.34
58843;BME280;44614;54.356;10.100;2023-03-14T02:42:18;98201.41;;;8.70;87.22
58843;BME280;44614;54.356;10.100;2023-03-14T02:44:55;98226.53;;;8.88;87.06
58843;BME280;44614;54.356;10.100;2023-03-14T02:47:29;98230.91;;;8.89;87.21
58843;BME280;44614;54.356;10.100;2023-03-14T02:50:00;98198.13;;;8.78;87.36
58843;BME280;44614;54.356;10.100;2023-03-14T02:52:27;98203.28;;;8.85;87.81
58843;BME280;44614;54.356;10.100;2023-03-14T02:54:52;98195.09;;;8.80;88.14
58843;BME280;44614;54.356;10.100;2023-03-14T02:57:17;98200.81;;;8.89;88.09
58843;BME280;44614;54.356;10.100;2023-03-14T02:59:43;98201.38;;;8.91;87.47
58843;BME280;44614;54.356;10.100;2023-03-14T03:02:08;98202.47;;;8.90;88.07
58843;BME280;44614;54.356;10.100;2023-03-14T03:04:33;98174.06;;;8.70;87.95
58843;BME280;44614;54.356;10.100;2023-03-14T03:06:59;98208.22;;;8.88;88.04
58843;BME280;44614;54.356;10.100;2023-03-14T03:09:24;98159.78;;;8.73;88.11
58843;BME280;44614;54.356;10.100;2023-03-14T03:11:49;98179.75;;;8.84;88.51
58843;BME280;44614;54.356;10.100;2023-03-14T03:14:15;98175.94;;;8.75;88.33
58843;BME280;44614;54.356;10.100;2023-03-14T03:16:40;98193.44;;;8.89;88.48
58843;BME280;44614;54.356;10.100;2023-03-14T03:19:05;98192.06;;;8.92;88.34
58843;BME280;44614;54.356;10.100;2023-03-14T03:21:30;98195.34;;;8.94;88.41
58843;BME280;44614;54.356;10.100;2023-03-14T03:23:56;98190.69;;;8.94;88.23
58843;BME280;44614;54.356;10.100;2023-03-14T03:26:21;98204.38;;;8.94;89.04
58843;BME280;44614;54.356;10.100;2023-03-14T03:28:46;98201.34;;;8.96;88.65
58843;BME280;44614;54.356;10.100;2023-03-14T03:31:12;98205.47;;;8.98;88.41
58843;BME280;44614;54.356;10.100;2023-03-14T03:33:38;98138.19;;;8.62;88.86
58843;BME280;44614;54.356;10.100;2023-03-14T03:36:04;98202.72;;;8.98;88.63
58843;BME280;44614;54.356;10.100;2023-03-14T03:38:29;98185.75;;;8.96;89.25
58843;BME280;44614;54.356;10.100;2023-03-14T03:40:54;98185.47;;;8.98;88.89
58843;BME280;44614;54.356;10.100;2023-03-14T03:43:20;98172.66;;;8.83;90.06
58843;BME280;44614;54.356;10.100;2023-03-14T03:45:45;98187.41;;;8.97;90.57
58843;BME280;44614;54.356;10.100;2023-03-14T03:48:10;98184.38;;;8.99;90.55
58843;BME280;44614;54.356;10.100;2023-03-14T03:50:36;98154.03;;;8.80;89.97
58843;BME280;44614;54.356;10.100;2023-03-14T03:53:02;98205.47;;;8.98;91.54
58843;BME280;44614;54.356;10.100;2023-03-14T03:55:28;98194.53;;;8.93;94.09
58843;BME280;44614;54.356;10.100;2023-03-14T03:57:53;98200.28;;;8.76;100.00
58843;BME280;44614;54.356;10.100;2023-03-14T04:00:19;98194.84;;;8.66;100.00
58843;BME280;44614;54.356;10.100;2023-03-14T04:02:44;98197.03;;;8.59;100.00
58843;BME280;44614;54.356;10.100;2023-03-14T04:05:09;98200.59;;;8.60;100.00
58843;BME280;44614;54.356;10.100;2023-03-14T04:07:35;98199.78;;;8.59;100.00
58843;BME280;44614;54.356;10.100;2023-03-14T04:10:00;98206.06;;;8.60;100.00
58843;BME280;44614;54.356;10.100;2023-03-14T04:12:25;98161.47;;;8.39;100.00
58843;BME280;44614;54.356;10.100;2023-03-14T04:14:51;98197.84;;;8.65;100.00
58843;BME280;44614;54.356;10.100;2023-03-14T04:17:16;98191.84;;;8.63;100.00
58843;BME280;44614;54.356;10.100;2023-03-14T04:19:41;98137.94;;;8.33;100.00
58843;BME280;44614;54.356;10.100;2023-03-14T04:22:08;98191.81;;;8.58;100.00
58843;BME280;44614;54.356;10.100;2023-03-14T04:24:34;98181.97;;;8.46;100.00
58843;BME280;44614;54.356;10.100;2023-03-14T04:26:59;98186.63;;;8.46;100.00
58843;BME280;44614;54.356;10.100;2023-03-14T04:29:24;98193.22;;;8.45;100.00
58843;BME280;44614;54.356;10.100;2023-03-14T04:31:50;98102.38;;;7.81;100.00
58843;BME280;44614;54.356;10.100;2023-03-14T04:34:15;98193.97;;;8.35;100.00
58843;BME280;44614;54.356;10.100;2023-03-14T04:36:40;98204.66;;;8.31;100.00
58843;BME280;44614;54.356;10.100;2023-03-14T04:39:06;98182.78;;;8.26;100.00
58843;BME280;44614;54.356;10.100;2023-03-14T04:41:32;98165.25;;;8.12;100.00
58843;BME280;44614;54.356;10.100;2023-03-14T04:43:58;98177.03;;;8.18;100.00
58843;BME280;44614;54.356;10.100;2023-03-14T04:46:23;98174.28;;;8.13;100.00
58843;BME280;44614;54.356;10.100;2023-03-14T04:48:49;98173.47;;;8.12;100.00
58843;BME280;44614;54.356;10.100;2023-03-14T04:51:14;98164.19;;;8.13;100.00
58843;BME280;44614;54.356;10.100;2023-03-14T04:53:39;98169.38;;;8.10;100.00
58843;BME280;44614;54.356;10.100;2023-03-14T04:56:05;98157.34;;;8.05;100.00
58843;BME280;44614;54.356;10.100;2023-03-14T04:58:31;98165.56;;;8.11;100.00
58843;BME280;44614;54.356;10.100;2023-03-14T05:01:01;98155.72;;;8.10;100.00
58843;BME280;44614;54.356;10.100;2023-03-14T05:03:26;98136.56;;;7.94;100.00
58843;BME280;44614;54.356;10.100;2023-03-14T05:05:52;98133.56;;;8.06;100.00
58843;BME280;44614;54.356;10.100;2023-03-14T05:08:17;98139.28;;;8.04;100.00
58843;BME280;44614;54.356;10.100;2023-03-14T05:10:42;98123.44;;;7.96;100.00
58843;BME280;44614;54.356;10.100;2023-03-14T05:13:08;98126.75;;;7.98;100.00
58843;BME280;44614;54.356;10.100;2023-03-14T05:15:33;98136.28;;;7.96;100.00
58843;BME280;44614;54.356;10.100;2023-03-14T05:17:58;98124.81;;;7.89;100.00
58843;BME280;44614;54.356;10.100;2023-03-14T05:20:24;98135.47;;;7.95;100.00
58843;BME280;44614;54.356;10.100;2023-03-14T05:22:49;98133.28;;;7.97;100.00
58843;BME280;44614;54.356;10.100;2023-03-14T05:25:14;98131.63;;;7.96;100.00
58843;BME280;44614;54.356;10.100;2023-03-14T05:27:40;98127.81;;;7.92;100.00
58843;BME280;44614;54.356;10.100;2023-03-14T05:30:06;98131.09;;;7.89;100.00
58843;BME280;44614;54.356;10.100;2023-03-14T05:32:31;98139.56;;;7.88;100.00
58843;BME280;44614;54.356;10.100;2023-03-14T05:34:57;98128.34;;;7.84;100.00
58843;BME280;44614;54.356;10.100;2023-03-14T05:37:25;98126.16;;;7.76;100.00
58843;BME280;44614;54.356;10.100;2023-03-14T05:39:50;98124.25;;;7.81;100.00
58843;BME280;44614;54.356;10.100;2023-03-14T05:42:15;98118.50;;;7.78;100.00
58843;BME280;44614;54.356;10.100;2023-03-14T05:44:41;98119.06;;;7.75;100.00
58843;BME280;44614;54.356;10.100;2023-03-14T05:47:06;98128.31;;;7.74;100.00
58843;BME280;44614;54.356;10.100;2023-03-14T05:49:31;98114.13;;;7.72;100.00
58843;BME280;44614;54.356;10.100;2023-03-14T05:51:57;98108.41;;;7.68;100.00
58843;BME280;44614;54.356;10.100;2023-03-14T05:54:22;98102.09;;;7.57;100.00
58843;BME280;44614;54.356;10.100;2023-03-14T05:56:47;98116.59;;;7.63;100.00
58843;BME280;44614;54.356;10.100;2023-03-14T05:59:13;98131.31;;;7.62;100.00
58843;BME280;44614;54.356;10.100;2023-03-14T06:01:40;98104.81;;;7.52;100.00
58843;BME280;44614;54.356;10.100;2023-03-14T06:04:05;98124.50;;;7.60;100.00
58843;BME280;44614;54.356;10.100;2023-03-14T06:06:30;98129.13;;;7.59;100.00
58843;BME280;44614;54.356;10.100;2023-03-14T06:08:56;98119.28;;;7.58;100.00
58843;BME280;44614;54.356;10.100;2023-03-14T06:11:21;98120.38;;;7.57;100.00
58843;BME280;44614;54.356;10.100;2023-03-14T06:13:47;98121.22;;;7.57;100.00
58843;BME280;44614;54.356;10.100;2023-03-14T06:16:12;98107.81;;;7.51;100.00
58843;BME280;44614;54.356;10.100;2023-03-14T06:18:38;98124.47;;;7.54;100.00
58843;BME280;44614;54.356;10.100;2023-03-14T06:21:03;98122.84;;;7.58;100.00
58843;BME280;44614;54.356;10.100;2023-03-14T06:23:29;98115.47;;;7.59;100.00
58843;BME280;44614;54.356;10.100;2023-03-14T06:25:55;98120.94;;;7.64;100.00
58843;BME280;44614;54.356;10.100;2023-03-14T06:28:21;98122.31;;;7.67;100.00
58843;BME280;44614;54.356;10.100;2023-03-14T06:30:46;98114.13;;;7.72;100.00
58843;BME280;44614;54.356;10.100;2023-03-14T06:33:11;98110.88;;;7.75;100.00
58843;BME280;44614;54.356;10.100;2023-03-14T06:35:36;98118.78;;;7.76;100.00
58843;BME280;44614;54.356;10.100;2023-03-14T06:38:02;98113.88;;;7.78;100.00
58843;BME280;44614;54.356;10.100;2023-03-14T06:40:27;98119.59;;;7.82;100.00
58843;BME280;44614;54.356;10.100;2023-03-14T06:42:53;98106.22;;;7.80;100.00
58843;BME280;44614;54.356;10.100;2023-03-14T06:45:18;98118.81;;;7.87;100.00
58843;BME280;44614;54.356;10.100;2023-03-14T06:47:43;98086.81;;;7.72;100.00
58843;BME280;44614;54.356;10.100;2023-03-14T06:50:09;98112.50;;;7.81;100.00
58843;BME280;44614;54.356;10.100;2023-03-14T06:52:35;98112.25;;;7.88;100.00
58843;BME280;44614;54.356;10.100;2023-03-14T06:55:01;98124.53;;;8.00;100.00
58843;BME280;44614;54.356;10.100;2023-03-14T06:57:26;98132.19;;;8.03;100.00
58843;BME280;44614;54.356;10.100;2023-03-14T06:59:51;98126.44;;;8.00;100.00
58843;BME280;44614;54.356;10.100;2023-03-14T07:02:16;98137.41;;;8.10;100.00
58843;BME280;44614;54.356;10.100;2023-03-14T07:04:42;98107.31;;;7.90;100.00
58843;BME280;44614;54.356;10.100;2023-03-14T07:07:07;98133.84;;;8.15;100.00
58843;BME280;44614;54.356;10.100;2023-03-14T07:09:33;98142.59;;;8.17;100.00
58843;BME280;44614;54.356;10.100;2023-03-14T07:11:59;98142.03;;;8.20;100.00
58843;BME280;44614;54.356;10.100;2023-03-14T07:14:25;98128.91;;;8.22;100.00
58843;BME280;44614;54.356;10.100;2023-03-14T07:16:51;98137.38;;;8.20;100.00
58843;BME280;44614;54.356;10.100;2023-03-14T07:19:16;98089.53;;;7.97;100.00
58843;BME280;44614;54.356;10.100;2023-03-14T07:21:41;98140.13;;;8.20;100.00
58843;BME280;44614;54.356;10.100;2023-03-14T07:24:07;98134.66;;;8.20;100.00
58843;BME280;44614;54.356;10.100;2023-03-14T07:26:32;98144.22;;;8.23;100.00
58843;BME280;44614;54.356;10.100;2023-03-14T07:28:57;98145.59;;;8.25;100.00
58843;BME280;44614;54.356;10.100;2023-03-14T07:31:23;98146.41;;;8.26;100.00
58843;BME280;44614;54.356;10.100;2023-03-14T07:33:49;98153.53;;;8.27;100.00
58843;BME280;44614;54.356;10.100;2023-03-14T07:36:14;98153.25;;;8.28;100.00
58843;BME280;44614;54.356;10.100;2023-03-14T07:38:39;98155.72;;;8.25;100.00
58843;BME280;44614;54.356;10.100;2023-03-14T07:41:06;98150.25;;;8.15;100.00
58843;BME280;44614;54.356;10.100;2023-03-14T07:43:31;98171.03;;;8.21;100.00
58843;BME280;44614;54.356;10.100;2023-03-14T07:45:57;98169.38;;;8.20;100.00
58843;BME280;44614;54.356;10.100;2023-03-14T07:48:23;98171.03;;;8.21;100.00
58843;BME280;44614;54.356;10.100;2023-03-14T07:50:54;98135.47;;;8.00;100.00
58843;BME280;44614;54.356;10.100;2023-03-14T07:53:20;98171.81;;;8.16;100.00
58843;BME280;44614;54.356;10.100;2023-03-14T07:55:46;98176.75;;;8.19;100.00
58843;BME280;44614;54.356;10.100;2023-03-14T07:58:12;98174.84;;;8.20;100.00
58843;BME280;44614;54.356;10.100;2023-03-14T08:00:37;98137.13;;;8.06;100.00
58843;BME280;44614;54.356;10.100;2023-03-14T08:03:03;98165.00;;;8.24;100.00
58843;BME280;44614;54.356;10.100;2023-03-14T08:05:28;98151.06;;;8.25;100.00
58843;BME280;44614;54.356;10.100;2023-03-14T08:07:53;98161.16;;;8.35;100.00
58843;BME280;44614;54.356;10.100;2023-03-14T08:10:19;98173.50;;;8.43;100.00
58843;BME280;44614;54.356;10.100;2023-03-14T08:12:51;98141.50;;;8.23;100.00
58843;BME280;44614;54.356;10.100;2023-03-14T08:15:18;98193.50;;;8.43;100.00
58843;BME280;44614;54.356;10.100;2023-03-14T08:17:43;98197.31;;;8.37;100.00
58843;BME280;44614;54.356;10.100;2023-03-14T08:20:09;98169.94;;;8.17;100.00
58843;BME280;44614;54.356;10.100;2023-03-14T08:22:36;98177.56;;;8.20;100.00
58843;BME280;44614;54.356;10.100;2023-03-14T08:25:02;98192.06;;;8.20;100.00
58843;BME280;44614;54.356;10.100;2023-03-14T08:27:27;98208.47;;;8.15;100.00
58843;BME280;44614;54.356;10.100;2023-03-14T08:29:52;98199.44;;;8.10;100.00
58843;BME280;44614;54.356;10.100;2023-03-14T08:32:18;98204.34;;;8.07;100.00
58843;BME280;44614;54.356;10.100;2023-03-14T08:34:45;98221.03;;;8.06;100.00
58843;BME280;44614;54.356;10.100;2023-03-14T08:37:10;98201.59;;;7.92;100.00
58843;BME280;44614;54.356;10.100;2023-03-14T08:39:35;98222.09;;;8.05;100.00
58843;BME280;44614;54.356;10.100;2023-03-14T08:42:01;98221.31;;;8.10;100.00
58843;BME280;44614;54.356;10.100;2023-03-14T08:44:26;98221.31;;;8.10;100.00
58843;BME280;44614;54.356;10.100;2023-03-14T08:46:51;98232.78;;;8.12;100.00
58843;BME280;44614;54.356;10.100;2023-03-14T08:49:17;98302.22;;;8.11;100.00
58843;BME280;44614;54.356;10.100;2023-03-14T08:51:42;98317.41;;;7.81;100.00
58843;BME280;44614;54.356;10.100;2023-03-14T08:54:10;98318.81;;;7.36;100.00
58843;BME280;44614;54.356;10.100;2023-03-14T08:56:35;98337.94;;;6.99;100.00
58843;BME280;44614;54.356;10.100;2023-03-14T08:59:03;98325.47;;;6.76;100.00
58843;BME280;44614;54.356;10.100;2023-03-14T09:01:28;98310.50;;;6.51;100.00
58843;BME280;44614;54.356;10.100;2023-03-14T09:03:54;98365.81;;;6.47;100.00
58843;BME280;44614;54.356;10.100;2023-03-14T09:06:19;98376.75;;;6.25;100.00
58843;BME280;44614;54.356;10.100;2023-03-14T09:08:45;98390.63;;;6.01;100.00
58843;BME280;44614;54.356;10.100;2023-03-14T09:11:11;98401.03;;;5.66;100.00
58843;BME280;44614;54.356;10.100;2023-03-14T09:13:36;98420.28;;;5.42;100.00
58843;BME280;44614;54.356;10.100;2023-03-14T09:16:02;98435.31;;;5.28;100.00
58843;BME280;44614;54.356;10.100;2023-03-14T09:18:27;98386.94;;;4.68;100.00
58843;BME280;44614;54.356;10.100;2023-03-14T09:20:55;98457.28;;;4.93;100.00
58843;BME280;44614;54.356;10.100;2023-03-14T09:23:20;98454.13;;;4.84;100.00
58843;BME280;44614;54.356;10.100;2023-03-14T09:25:46;98470.66;;;4.66;100.00
58843;BME280;44614;54.356;10.100;2023-03-14T09:28:11;98463.31;;;4.26;100.00
58843;BME280;44614;54.356;10.100;2023-03-14T09:30:37;98500.06;;;4.28;100.00
58843;BME280;44614;54.356;10.100;2023-03-14T09:33:02;98513.06;;;4.14;100.00
58843;BME280;44614;54.356;10.100;2023-03-14T09:35:28;98517.00;;;3.95;100.00
58843;BME280;44614;54.356;10.100;2023-03-14T09:37:53;98520.53;;;3.96;100.00
58843;BME280;44614;54.356;10.100;2023-03-14T09:40:19;98530.81;;;3.94;100.00
58843;BME280;44614;54.356;10.100;2023-03-14T09:42:50;98543.69;;;3.86;100.00
58843;BME280;44614;54.356;10.100;2023-03-14T09:45:35;98549.81;;;3.82;100.00
58843;BME280;44614;54.356;10.100;2023-03-14T09:48:03;98562.44;;;3.88;100.00
58843;BME280;44614;54.356;10.100;2023-03-14T09:50:51;98582.75;;;3.85;100.00
58843;BME280;44614;54.356;10.100;2023-03-14T09:53:20;98583.69;;;3.91;100.00
58843;BME280;44614;54.356;10.100;2023-03-14T09:55:49;98587.59;;;3.95;100.00
58843;BME280;44614;54.356;10.100;2023-03-14T09:58:19;98585.13;;;3.82;100.00
58843;BME280;44614;54.356;10.100;2023-03-14T10:00:44;98606.69;;;3.88;100.00
58843;BME280;44614;54.356;10.100;2023-03-14T10:05:42;98617.94;;;3.92;100.00
58843;BME280;44614;54.356;10.100;2023-03-14T10:08:11;98631.31;;;4.05;100.00
58843;BME280;44614;54.356;10.100;2023-03-14T10:10:38;98639.09;;;4.02;100.00
58843;BME280;44614;54.356;10.100;2023-03-14T10:15:35;98598.06;;;3.68;100.00
58843;BME280;44614;54.356;10.100;2023-03-14T10:18:03;98656.78;;;4.04;100.00
58843;BME280;44614;54.356;10.100;2023-03-14T10:23:18;98672.28;;;4.15;100.00
58843;BME280;44614;54.356;10.100;2023-03-14T10:26:27;98691.66;;;4.31;100.00
58843;BME280;44614;54.356;10.100;2023-03-14T10:28:55;98690.25;;;4.28;100.00
58843;BME280;44614;54.356;10.100;2023-03-14T10:31:26;98689.28;;;4.23;100.00
58843;BME280;44614;54.356;10.100;2023-03-14T10:34:00;98700.41;;;4.33;100.00
58843;BME280;44614;54.356;10.100;2023-03-14T10:36:33;98714.13;;;4.38;100.00
58843;BME280;44614;54.356;10.100;2023-03-14T10:41:48;98728.91;;;4.42;100.00
58843;BME280;44614;54.356;10.100;2023-03-14T10:44:19;98736.84;;;4.55;100.00
58843;BME280;44614;54.356;10.100;2023-03-14T10:46:46;98754.22;;;4.54;100.00
58843;BME280;44614;54.356;10.100;2023-03-14T10:49:26;98745.09;;;4.60;100.00
58843;BME280;44614;54.356;10.100;2023-03-14T10:51:53;98748.91;;;4.59;100.00
58843;BME280;44614;54.356;10.100;2023-03-14T10:54:22;98742.25;;;4.44;100.00
58843;BME280;44614;54.356;10.100;2023-03-14T10:56:59;98754.06;;;4.49;100.00
58843;BME280;44614;54.356;10.100;2023-03-14T10:59:29;98772.91;;;4.62;100.00
58843;BME280;44614;54.356;10.100;2023-03-14T11:02:40;98781.53;;;4.83;100.00
58843;BME280;44614;54.356;10.100;2023-03-14T11:05:55;98784.13;;;4.89;99.66
58843;BME280;44614;54.356;10.100;2023-03-14T11:13:58;98799.84;;;4.76;97.75
58843;BME280;44614;54.356;10.100;2023-03-14T11:16:51;98798.66;;;4.83;98.40
58843;BME280;44614;54.356;10.100;2023-03-14T11:19:58;98809.19;;;4.92;98.10
58843;BME280;44614;54.356;10.100;2023-03-14T11:28:18;98816.53;;;5.14;96.60
58843;BME280;44614;54.356;10.100;2023-03-14T11:31:03;98827.06;;;5.11;95.66
58843;BME280;44614;54.356;10.100;2023-03-14T11:33:46;98831.22;;;5.02;93.68
58843;BME280;44614;54.356;10.100;2023-03-14T11:36:19;98846.00;;;5.06;95.40
58843;BME280;44614;54.356;10.100;2023-03-14T11:38:49;98847.63;;;5.19;96.52
58843;BME280;44614;54.356;10.100;2023-03-14T11:41:34;98852.50;;;5.17;94.42
58843;BME280;44614;54.356;10.100;2023-03-14T11:44:10;98864.47;;;5.16;91.85
58843;BME280;44614;54.356;10.100;2023-03-14T11:46:43;98882.44;;;5.17;93.05
58843;BME280;44614;54.356;10.100;2023-03-14T11:51:44;98896.66;;;5.30;94.18
58843;BME280;44614;54.356;10.100;2023-03-14T11:54:31;98890.97;;;5.32;93.65
58843;BME280;44614;54.356;10.100;2023-03-14T11:57:04;98879.13;;;5.38;92.98
58843;BME280;44614;54.356;10.100;2023-03-14T12:00:02;98878.28;;;5.37;90.63
58843;BME280;44614;54.356;10.100;2023-03-14T12:10:26;98913.09;;;5.12;88.02
58843;BME280;44614;54.356;10.100;2023-03-14T12:12:52;98922.28;;;4.99;88.93
58843;BME280;44614;54.356;10.100;2023-03-14T12:15:20;98922.28;;;4.99;91.05
58843;BME280;44614;54.356;10.100;2023-03-14T12:17:46;98922.25;;;4.87;90.66
58843;BME280;44614;54.356;10.100;2023-03-14T12:20:21;98941.91;;;5.01;92.91
58843;BME280;44614;54.356;10.100;2023-03-14T12:22:49;98943.31;;;4.92;93.30
58843;BME280;44614;54.356;10.100;2023-03-14T12:25:19;98956.88;;;4.80;92.98
58843;BME280;44614;54.356;10.100;2023-03-14T12:30:36;98961.44;;;4.38;94.35
58843;BME280;44614;54.356;10.100;2023-03-14T12:33:11;98951.31;;;4.27;96.42
58843;BME280;44614;54.356;10.100;2023-03-14T12:35:47;98963.41;;;4.31;98.07
58843;BME280;44614;54.356;10.100;2023-03-14T12:41:36;98974.63;;;4.53;98.29
58843;BME280;44614;54.356;10.100;2023-03-14T12:46:53;98984.53;;;4.47;94.94
58843;BME280;44614;54.356;10.100;2023-03-14T12:49:18;98986.31;;;4.53;95.49
58843;BME280;44614;54.356;10.100;2023-03-14T12:51:44;98982.25;;;4.62;94.10
58843;BME280;44614;54.356;10.100;2023-03-14T12:54:18;98980.84;;;4.72;93.01
58843;BME280;44614;54.356;10.100;2023-03-14T12:59:34;98993.72;;;5.06;86.73
58843;BME280;44614;54.356;10.100;2023-03-14T13:04:44;99002.91;;;5.24;84.45
58843;BME280;44614;54.356;10.100;2023-03-14T13:15:33;99048.06;;;5.55;76.58
58843;BME280;44614;54.356;10.100;2023-03-14T13:18:10;99050.41;;;5.51;71.76
58843;BME280;44614;54.356;10.100;2023-03-14T13:20:50;99053.47;;;5.43;73.67
58843;BME280;44614;54.356;10.100;2023-03-14T13:26:20;99076.25;;;5.72;74.42
58843;BME280;44614;54.356;10.100;2023-03-14T13:28:45;99079.94;;;5.90;75.06
58843;BME280;44614;54.356;10.100;2023-03-14T13:31:21;99086.03;;;6.03;71.39
58843;BME280;44614;54.356;10.100;2023-03-14T13:33:59;99089.25;;;6.12;67.43
58843;BME280;44614;54.356;10.100;2023-03-14T13:36:26;99090.53;;;6.21;71.88
58843;BME280;44614;54.356;10.100;2023-03-14T13:39:00;99097.66;;;6.34;71.65
58843;BME280;44614;54.356;10.100;2023-03-14T13:41:27;99067.19;;;6.14;65.92
58843;BME280;44614;54.356;10.100;2023-03-14T13:44:01;99104.88;;;6.28;67.86
58843;BME280;44614;54.356;10.100;2023-03-14T13:46:27;99125.13;;;6.21;68.04
58843;BME280;44614;54.356;10.100;2023-03-14T13:49:01;99136.72;;;5.93;63.83
58843;BME280;44614;54.356;10.100;2023-03-14T13:51:28;99133.97;;;5.81;65.74
58843;BME280;44614;54.356;10.100;2023-03-14T13:53:57;99161.41;;;5.79;67.31
58843;BME280;44614;54.356;10.100;2023-03-14T13:56:26;99171.47;;;5.79;64.24
58843;BME280;44614;54.356;10.100;2023-03-14T13:58:52;99171.00;;;5.70;59.13
58843;BME280;44614;54.356;10.100;2023-03-14T14:01:30;99176.31;;;5.65;60.42